Time;durP1;ratioP1;P1;durP2;ratioP2;P2;SDS_P1;SDS_P2;PMS_P1;PMS_P2;Temp;Humidity;BMP_temperature;BMP_pressure;BME280_temperature;BME280_humidity;BME280_pressure;Samples;Min_cycle;Max_cycle;Signal;HPM_P1;HPM_P2
2022/04/13 00:00:16;;;;;;;10.38;7.18;;;10.50;93.90;;;;;;5034466;28;20209;-84
2022/04/13 00:02:44;;;;;;;9.57;7.20;;;10.50;93.60;;;;;;5034603;28;20233;-85
2022/04/13 00:05:13;;;;;;;9.40;6.70;;;10.50;94.30;;;;;;5033069;28;20213;-84
2022/04/13 00:07:41;;;;;;;7.50;6.70;;;10.40;93.90;;;;;;5031216;28;20210;-86
2022/04/13 00:10:10;;;;;;;7.78;6.20;;;10.40;94.10;;;;;;5033934;28;20214;-86
2022/04/13 00:12:40;;;;;;;9.60;6.57;;;10.40;94.30;;;;;;5033509;28;20249;-87
2022/04/13 00:15:09;;;;;;;9.90;6.88;;;10.40;94.60;;;;;;5033356;28;20235;-85
2022/04/13 00:17:38;;;;;;;9.57;7.10;;;10.40;94.30;;;;;;5033315;28;20265;-85
2022/04/13 00:20:08;;;;;;;6.22;5.57;;;10.40;94.60;;;;;;5033259;28;20210;-85
2022/04/13 00:22:37;;;;;;;8.10;6.65;;;10.40;94.70;;;;;;5033430;28;20261;-85
2022/04/13 00:25:06;;;;;;;8.10;6.47;;;10.40;94.80;;;;;;5033532;28;20290;-84
2022/04/13 00:27:34;;;;;;;8.98;6.80;;;10.40;94.60;;;;;;5033481;28;20297;-85
2022/04/13 00:30:04;;;;;;;8.93;6.57;;;10.30;94.90;;;;;;5033525;28;20265;-85
2022/04/13 00:32:33;;;;;;;7.15;6.05;;;10.30;95.30;;;;;;5032829;28;20253;-84
2022/04/13 00:35:04;;;;;;;6.93;6.20;;;10.30;95.30;;;;;;5033073;28;20210;-85
2022/04/13 00:37:33;;;;;;;10.38;7.85;;;10.30;95.40;;;;;;5033368;28;20214;-85
2022/04/13 00:40:02;;;;;;;6.25;5.75;;;10.20;95.60;;;;;;5033421;28;20210;-85
2022/04/13 00:42:30;;;;;;;10.27;7.15;;;10.20;95.70;;;;;;5032746;28;20261;-85
2022/04/13 00:44:59;;;;;;;8.65;6.43;;;10.20;96.10;;;;;;5032790;28;20309;-84
2022/04/13 00:47:28;;;;;;;6.15;5.63;;;10.20;96.50;;;;;;5033022;28;20294;-84
2022/04/13 00:49:57;;;;;;;7.50;6.30;;;10.10;96.70;;;;;;5032890;28;20214;-85
2022/04/13 00:52:28;;;;;;;7.85;7.05;;;10.10;97.10;;;;;;5032476;28;20300;-85
2022/04/13 00:54:58;;;;;;;6.18;5.68;;;10.10;97.10;;;;;;5033046;28;20206;-84
2022/04/13 00:57:31;;;;;;;7.28;6.68;;;10.00;97.70;;;;;;5032858;28;20297;-84
2022/04/13 01:00:01;;;;;;;10.65;6.32;;;10.00;97.70;;;;;;5032858;28;20289;-85
2022/04/13 01:02:31;;;;;;;10.25;7.40;;;10.00;98.00;;;;;;5032548;28;20269;-85
2022/04/13 01:05:03;;;;;;;8.00;7.20;;;10.00;98.50;;;;;;5032518;28;20234;-86
2022/04/13 01:07:32;;;;;;;9.05;6.72;;;9.90;99.30;;;;;;5032725;28;20285;-85
2022/04/13 01:10:02;;;;;;;12.43;6.88;;;9.80;99.60;;;;;;5032751;28;20294;-84
2022/04/13 01:12:30;;;;;;;9.75;6.82;;;9.80;99.90;;;;;;5032257;28;20234;-85
2022/04/13 01:14:58;;;;;;;7.55;6.72;;;9.80;99.90;;;;;;5032754;28;20218;-84
2022/04/13 01:17:27;;;;;;;7.15;6.45;;;9.80;99.90;;;;;;5032440;28;20262;-85
2022/04/13 01:19:57;;;;;;;7.47;6.65;;;9.80;99.90;;;;;;5032636;28;20297;-85
2022/04/13 01:22:27;;;;;;;7.60;6.85;;;9.80;99.90;;;;;;5032693;28;20230;-84
2022/04/13 01:24:55;;;;;;;10.82;7.10;;;9.80;99.90;;;;;;5032004;28;20300;-84
2022/04/13 01:27:26;;;;;;;6.18;5.57;;;9.70;99.90;;;;;;5032202;28;20206;-84
2022/04/13 01:29:54;;;;;;;9.27;7.38;;;9.70;99.90;;;;;;5032433;28;20203;-85
2022/04/13 01:32:23;;;;;;;8.95;7.00;;;9.70;99.90;;;;;;5032344;28;20224;-84
2022/04/13 01:34:53;;;;;;;11.98;7.68;;;9.70;99.90;;;;;;5032224;28;20260;-84
2022/04/13 01:37:22;;;;;;;8.50;6.75;;;9.70;99.90;;;;;;5031612;28;20309;-84
2022/04/13 01:39:52;;;;;;;7.40;6.70;;;9.70;99.90;;;;;;5032449;28;20242;-84
2022/04/13 01:42:20;;;;;;;7.10;6.43;;;9.70;99.90;;;;;;5032106;28;20226;-85
2022/04/13 01:44:48;;;;;;;7.63;5.85;;;9.70;99.90;;;;;;5032423;28;20222;-84
2022/04/13 01:47:15;;;;;;;15.48;7.13;;;9.70;99.90;;;;;;5032245;28;20209;-84
2022/04/13 01:49:43;;;;;;;7.03;6.32;;;9.70;99.90;;;;;;5032049;28;20207;-84
2022/04/13 01:52:12;;;;;;;9.85;7.60;;;9.60;99.90;;;;;;5032138;28;20226;-85
2022/04/13 01:54:40;;;;;;;8.27;6.05;;;9.60;99.90;;;;;;5032167;28;20202;-84
2022/04/13 01:57:10;;;;;;;7.20;6.38;;;9.50;99.90;;;;;;5032480;28;20202;-85
2022/04/13 01:59:38;;;;;;;8.45;7.55;;;9.50;99.90;;;;;;5032191;28;20289;-84
2022/04/13 02:02:07;;;;;;;9.13;7.28;;;9.50;99.90;;;;;;5031499;28;20281;-85
2022/04/13 02:04:35;;;;;;;7.22;6.53;;;9.50;99.90;;;;;;5032015;28;20222;-85
2022/04/13 02:07:04;;;;;;;10.38;6.80;;;9.50;99.90;;;;;;5032131;28;20202;-85
2022/04/13 02:09:32;;;;;;;7.30;6.60;;;9.40;99.90;;;;;;5031865;28;20301;-84
2022/04/13 02:12:01;;;;;;;7.85;6.80;;;9.40;99.90;;;;;;5031685;28;20214;-85
2022/04/13 02:14:30;;;;;;;10.18;6.50;;;9.40;99.90;;;;;;5031900;28;20293;-85
2022/04/13 02:16:59;;;;;;;9.07;7.32;;;9.40;99.90;;;;;;5032114;28;20298;-84
2022/04/13 02:19:27;;;;;;;11.48;6.10;;;9.30;99.90;;;;;;5031992;28;20214;-84
2022/04/13 02:21:55;;;;;;;8.20;7.35;;;9.30;99.90;;;;;;5031906;28;20210;-84
2022/04/13 02:24:24;;;;;;;6.60;5.60;;;9.40;99.90;;;;;;5031498;28;20225;-84
2022/04/13 02:26:52;;;;;;;9.30;6.93;;;9.30;99.90;;;;;;5031906;28;20211;-84
2022/04/13 02:29:20;;;;;;;8.73;6.97;;;9.30;99.90;;;;;;5031863;28;20310;-85
2022/04/13 02:31:50;;;;;;;7.85;6.82;;;9.30;99.90;;;;;;5031505;28;20285;-84
2022/04/13 02:34:18;;;;;;;13.60;7.20;;;9.20;99.90;;;;;;5031711;28;20234;-85
2022/04/13 02:36:47;;;;;;;7.07;6.40;;;9.20;99.90;;;;;;5032141;28;20278;-85
2022/04/13 02:39:15;;;;;;;9.88;6.55;;;9.20;99.90;;;;;;5031927;28;20210;-85
2022/04/13 02:41:43;;;;;;;14.82;6.70;;;9.20;99.90;;;;;;5031461;28;20266;-85
2022/04/13 02:44:11;;;;;;;7.88;6.63;;;9.20;99.90;;;;;;5031446;28;20222;-84
2022/04/13 02:46:41;;;;;;;6.72;6.03;;;9.20;99.90;;;;;;5031629;28;20245;-85
2022/04/13 02:49:11;;;;;;;9.38;6.43;;;9.10;99.90;;;;;;5033397;28;20270;-84
2022/04/13 02:51:39;;;;;;;7.22;5.80;;;9.10;99.90;;;;;;5034739;28;20369;-85
2022/04/13 02:54:08;;;;;;;7.65;5.60;;;9.10;99.90;;;;;;5034968;28;20249;-85
2022/04/13 02:56:36;;;;;;;9.18;6.90;;;9.00;99.90;;;;;;5035138;28;20266;-84
2022/04/13 02:59:04;;;;;;;6.35;5.75;;;9.00;99.90;;;;;;5034831;28;20289;-84
2022/04/13 03:01:33;;;;;;;7.28;5.97;;;9.00;99.90;;;;;;5034908;28;20202;-85
2022/04/13 03:04:01;;;;;;;9.93;7.13;;;9.00;99.90;;;;;;5034791;28;20226;-85
2022/04/13 03:06:31;;;;;;;8.15;6.03;;;8.90;99.90;;;;;;5035081;28;20297;-84
2022/04/13 03:08:59;;;;;;;6.55;5.78;;;8.90;99.90;;;;;;5034889;28;20293;-84
2022/04/13 03:11:27;;;;;;;10.45;7.00;;;8.90;99.90;;;;;;5034495;28;20301;-84
2022/04/13 03:13:56;;;;;;;7.35;6.30;;;8.90;99.90;;;;;;5034660;28;20317;-84
2022/04/13 03:16:24;;;;;;;10.13;6.25;;;8.90;99.90;;;;;;5034837;28;20286;-84
2022/04/13 03:18:52;;;;;;;6.57;5.88;;;8.80;99.90;;;;;;5034704;28;20249;-84
2022/04/13 03:21:21;;;;;;;12.88;7.07;;;8.80;99.90;;;;;;5034607;28;20210;-84
2022/04/13 03:23:51;;;;;;;6.22;5.63;;;8.80;99.90;;;;;;5034556;28;20226;-85
2022/04/13 03:26:19;;;;;;;8.95;6.07;;;8.80;99.90;;;;;;5034044;28;20269;-84
2022/04/13 03:28:47;;;;;;;7.72;5.97;;;8.80;99.90;;;;;;5034173;28;20234;-85
2022/04/13 03:31:16;;;;;;;13.10;5.82;;;8.70;99.90;;;;;;5034143;28;20214;-84
2022/04/13 03:33:45;;;;;;;6.32;5.55;;;8.70;99.90;;;;;;5034275;28;20226;-84
2022/04/13 03:36:16;;;;;;;7.55;5.90;;;8.70;99.90;;;;;;5034194;28;20238;-85
2022/04/13 03:38:44;;;;;;;8.77;5.82;;;8.60;99.90;;;;;;5034319;28;20257;-84
2022/04/13 03:41:14;;;;;;;6.88;5.38;;;8.60;99.90;;;;;;5033978;28;20285;-84
2022/04/13 03:43:42;;;;;;;7.93;5.90;;;8.60;99.90;;;;;;5034026;28;20226;-85
2022/04/13 03:46:11;;;;;;;19.88;6.32;;;8.50;99.90;;;;;;5033955;28;20294;-84
2022/04/13 03:48:39;;;;;;;12.18;5.53;;;8.50;99.90;;;;;;5034037;28;20214;-85
2022/04/13 03:51:07;;;;;;;8.48;6.13;;;8.50;99.90;;;;;;5033449;28;20281;-85
2022/04/13 03:53:35;;;;;;;7.43;6.65;;;8.50;99.90;;;;;;5033943;28;20312;-84
2022/04/13 03:56:04;;;;;;;7.30;5.40;;;8.50;99.90;;;;;;5034123;28;20210;-84
2022/04/13 03:58:33;;;;;;;5.05;4.35;;;8.50;99.90;;;;;;5034014;28;20233;-84
2022/04/13 04:01:02;;;;;;;6.70;5.13;;;8.50;99.90;;;;;;5033448;28;20218;-84
2022/04/13 04:03:30;;;;;;;6.22;5.63;;;8.50;99.90;;;;;;5033766;28;20241;-86
2022/04/13 04:05:58;;;;;;;6.07;5.40;;;8.50;99.90;;;;;;5033531;28;20297;-86
2022/04/13 04:08:27;;;;;;;7.75;5.60;;;8.50;99.90;;;;;;5033637;28;20211;-86
2022/04/13 04:10:56;;;;;;;7.40;5.30;;;8.50;99.90;;;;;;5033435;28;20203;-86
2022/04/13 04:13:24;;;;;;;7.00;4.55;;;8.40;99.90;;;;;;5033714;28;20237;-87
2022/04/13 04:15:54;;;;;;;10.48;5.38;;;8.40;99.90;;;;;;5033566;28;20265;-86
2022/04/13 04:18:22;;;;;;;11.50;6.50;;;8.40;99.90;;;;;;5033907;28;20213;-87
2022/04/13 04:20:51;;;;;;;5.57;5.00;;;8.40;99.90;;;;;;5033279;28;20275;-87
2022/04/13 04:23:19;;;;;;;6.00;5.35;;;8.40;99.90;;;;;;5033086;28;20252;-87
2022/04/13 04:25:47;;;;;;;5.50;4.85;;;8.40;99.90;;;;;;5033363;28;20309;-86
2022/04/13 04:28:16;;;;;;;6.57;5.95;;;8.40;99.90;;;;;;5033019;28;20294;-87
2022/04/13 04:30:44;;;;;;;12.50;5.57;;;8.40;99.90;;;;;;5033187;28;20237;-87
2022/04/13 04:33:14;;;;;;;5.45;4.93;;;8.40;99.90;;;;;;5033007;28;20230;-87
2022/04/13 04:35:46;;;;;;;5.20;4.70;;;8.40;99.90;;;;;;5033247;28;20217;-87
2022/04/13 04:38:20;;;;;;;5.25;4.75;;;8.40;99.90;;;;;;5032948;28;20202;-87
2022/04/13 04:40:49;;;;;;;5.47;4.55;;;8.40;99.90;;;;;;5033032;28;20292;-86
2022/04/13 04:43:17;;;;;;;5.40;4.90;;;8.40;99.90;;;;;;5034082;28;20222;-86
2022/04/13 04:45:45;;;;;;;6.97;5.95;;;8.40;99.90;;;;;;5033480;28;20249;-87
2022/04/13 04:48:15;;;;;;;5.78;5.00;;;8.40;99.90;;;;;;5033976;28;20297;-86
2022/04/13 04:50:44;;;;;;;14.10;5.10;;;8.50;99.90;;;;;;5033449;28;20265;-87
2022/04/13 04:53:12;;;;;;;9.07;5.47;;;8.40;99.90;;;;;;5033376;28;20226;-87
2022/04/13 04:55:42;;;;;;;5.43;4.93;;;8.40;99.90;;;;;;5033310;28;20205;-87
2022/04/13 04:58:11;;;;;;;6.05;4.65;;;8.50;99.90;;;;;;5033344;28;20210;-86
2022/04/13 05:00:40;;;;;;;5.95;5.35;;;8.50;99.90;;;;;;5033485;28;20294;-86
2022/04/13 05:03:09;;;;;;;5.32;4.38;;;8.50;99.90;;;;;;5030908;28;20228;-86
2022/04/13 05:05:41;;;;;;;5.07;4.40;;;8.50;99.90;;;;;;5029747;28;20218;-86
2022/04/13 05:08:09;;;;;;;7.82;5.60;;;8.50;99.90;;;;;;5033251;28;20214;-86
2022/04/13 05:10:38;;;;;;;7.68;5.53;;;8.50;99.90;;;;;;5015872;28;20206;-85
2022/04/13 05:13:07;;;;;;;6.18;5.30;;;8.60;99.90;;;;;;5028076;28;20270;-84
2022/04/13 05:15:36;;;;;;;6.50;5.22;;;8.60;99.90;;;;;;5032464;28;20210;-84
2022/04/13 05:18:04;;;;;;;6.03;5.20;;;8.60;99.90;;;;;;5032611;28;20225;-84
2022/04/13 05:20:33;;;;;;;7.00;5.25;;;8.60;99.90;;;;;;5032593;28;20226;-84
2022/04/13 05:23:02;;;;;;;5.32;4.80;;;8.70;99.90;;;;;;5032652;28;20302;-84
2022/04/13 05:25:31;;;;;;;5.80;5.20;;;8.70;99.90;;;;;;5033431;28;20223;-84
2022/04/13 05:27:59;;;;;;;7.13;5.05;;;8.70;99.90;;;;;;5032680;28;20202;-84
2022/04/13 05:30:28;;;;;;;6.72;5.18;;;8.80;99.90;;;;;;5032811;28;20294;-84
2022/04/13 05:32:58;;;;;;;6.63;5.20;;;8.80;99.90;;;;;;5034260;28;20218;-84
2022/04/13 05:35:28;;;;;;;5.93;5.25;;;8.80;99.90;;;;;;5033536;28;20198;-84
2022/04/13 05:37:57;;;;;;;7.07;5.40;;;8.80;99.90;;;;;;5033101;28;20226;-84
2022/04/13 05:40:27;;;;;;;5.55;4.22;;;8.90;99.90;;;;;;5033045;28;20233;-85
2022/04/13 05:42:56;;;;;;;4.75;4.32;;;8.90;99.90;;;;;;5032876;28;20278;-85
2022/04/13 05:45:25;;;;;;;10.00;5.07;;;8.90;99.90;;;;;;5033343;28;20229;-84
2022/04/13 05:47:53;;;;;;;5.70;5.20;;;9.00;99.90;;;;;;5032964;28;20194;-84
2022/04/13 05:50:21;;;;;;;4.45;4.05;;;9.00;99.90;;;;;;5032619;28;20202;-85
2022/04/13 05:52:49;;;;;;;6.72;5.25;;;9.00;99.90;;;;;;5033125;28;20222;-84
2022/04/13 05:55:18;;;;;;;9.00;5.55;;;9.10;99.90;;;;;;5033012;28;20202;-87
2022/04/13 05:57:50;;;;;;;7.63;5.10;;;9.10;99.90;;;;;;5032402;28;20199;-89
2022/04/13 06:00:19;;;;;;;9.75;4.20;;;9.10;99.90;;;;;;5031003;28;20218;-88
2022/04/13 06:02:47;;;;;;;6.18;5.30;;;9.20;99.90;;;;;;5032786;28;20284;-87
2022/04/13 06:05:16;;;;;;;6.63;5.07;;;9.20;99.90;;;;;;5032795;28;20227;-86
2022/04/13 06:07:45;;;;;;;8.93;4.40;;;9.20;99.90;;;;;;5030627;28;20291;-86
2022/04/13 06:10:15;;;;;;;7.53;5.13;;;9.30;99.90;;;;;;5021584;28;20230;-89
2022/04/13 06:12:44;;;;;;;10.73;5.40;;;9.30;99.90;;;;;;5032720;28;20246;-89
2022/04/13 06:15:14;;;;;;;5.60;4.75;;;9.30;99.90;;;;;;5032471;28;20261;-87
2022/04/13 06:17:43;;;;;;;6.28;5.03;;;9.40;99.90;;;;;;5032870;28;20222;-87
2022/04/13 06:20:14;;;;;;;6.00;5.20;;;9.40;99.90;;;;;;5032018;28;20293;-87
2022/04/13 06:22:43;;;;;;;5.07;4.38;;;9.50;99.90;;;;;;5033315;28;20222;-86
2022/04/13 06:25:13;;;;;;;6.00;5.00;;;9.50;99.90;;;;;;5036464;28;20202;-87
2022/04/13 06:27:44;;;;;;;5.63;4.95;;;9.60;99.90;;;;;;5036096;28;20313;-89
2022/04/13 06:30:15;;;;;;;6.20;5.05;;;9.70;99.90;;;;;;5036898;28;20229;-88
2022/04/13 06:32:50;;;;;;;7.90;5.03;;;9.80;99.90;;;;;;5036620;28;20249;-88
2022/04/13 06:35:18;;;;;;;6.80;5.18;;;9.90;99.90;;;;;;5037557;28;20206;-88
2022/04/13 06:37:48;;;;;;;8.93;5.25;;;9.90;99.90;;;;;;5036124;28;20258;-88
2022/04/13 06:40:16;;;;;;;5.35;4.85;;;10.00;99.90;;;;;;5036108;28;20234;-88
2022/04/13 06:42:45;;;;;;;7.35;4.85;;;10.00;99.90;;;;;;5036427;28;20253;-88
2022/04/13 06:45:16;;;;;;;5.05;4.60;;;10.10;99.90;;;;;;5036027;28;20293;-89
2022/04/13 06:47:47;;;;;;;6.20;5.28;;;10.10;99.90;;;;;;5035800;28;20284;-86
2022/04/13 06:50:16;;;;;;;7.53;4.90;;;10.20;99.90;;;;;;5036046;28;20202;-86
2022/04/13 06:52:45;;;;;;;5.43;4.93;;;10.30;99.90;;;;;;5035794;28;20218;-87
2022/04/13 06:55:14;;;;;;;9.93;4.82;;;10.40;99.90;;;;;;5036086;28;20289;-88
2022/04/13 06:57:42;;;;;;;8.73;5.88;;;10.50;99.80;;;;;;5035855;28;20203;-87
2022/04/13 07:00:13;;;;;;;4.80;4.35;;;10.60;99.40;;;;;;5035681;28;20230;-89
2022/04/13 07:02:43;;;;;;;5.70;4.97;;;10.60;99.50;;;;;;5035939;28;20249;-89
2022/04/13 07:05:31;;;;;;;5.55;5.03;;;10.70;99.70;;;;;;5032665;28;20226;-88
2022/04/13 07:08:00;;;;;;;9.55;5.55;;;10.80;99.70;;;;;;5037577;28;20242;-83
2022/04/13 07:10:28;;;;;;;5.43;4.93;;;10.90;99.30;;;;;;5024992;28;20207;-88
2022/04/13 07:13:04;;;;;;;6.18;4.22;;;11.00;98.70;;;;;;5021460;28;20234;-87
2022/04/13 07:15:33;;;;;;;8.77;5.35;;;11.10;98.70;;;;;;5026760;28;20206;-87
2022/04/13 07:18:03;;;;;;;4.57;4.05;;;11.20;98.80;;;;;;5015831;28;20233;-87
2022/04/13 07:20:31;;;;;;;5.65;5.15;;;11.40;98.60;;;;;;5020447;28;20294;-88
2022/04/13 07:22:59;;;;;;;4.88;4.35;;;11.40;98.10;;;;;;5035782;28;20260;-88
2022/04/13 07:25:28;;;;;;;6.47;4.95;;;11.50;97.60;;;;;;5035309;28;20194;-89
2022/04/13 07:27:56;;;;;;;6.30;4.78;;;11.60;97.70;;;;;;5034974;28;20293;-88
2022/04/13 07:30:25;;;;;;;7.35;4.90;;;11.70;97.50;;;;;;5034610;28;20285;-88
2022/04/13 07:33:01;;;;;;;4.82;4.15;;;11.90;97.90;;;;;;5034958;28;20309;-87
2022/04/13 07:35:34;;;;;;;5.70;5.13;;;11.90;96.80;;;;;;5030879;28;20233;-88
2022/04/13 07:38:03;;;;;;;5.47;4.78;;;12.10;97.00;;;;;;5038041;28;20217;-87
2022/04/13 07:40:31;;;;;;;6.68;4.75;;;12.10;96.60;;;;;;5035353;28;20229;-88
2022/04/13 07:43:00;;;;;;;5.25;4.18;;;12.30;96.50;;;;;;5035239;28;20272;-88
2022/04/13 07:45:29;;;;;;;6.25;5.18;;;12.30;96.20;;;;;;5015319;28;20286;-87
2022/04/13 07:47:58;;;;;;;5.32;4.75;;;12.50;95.80;;;;;;5023616;28;20221;-87
2022/04/13 07:50:26;;;;;;;4.93;4.30;;;12.60;95.50;;;;;;5034760;28;20272;-86
2022/04/13 07:52:59;;;;;;;11.02;4.70;;;12.70;95.00;;;;;;5034278;28;20451;-87
2022/04/13 07:55:28;;;;;;;6.22;4.47;;;12.80;94.80;;;;;;5037090;28;20203;-85
2022/04/13 07:57:57;;;;;;;5.43;4.50;;;12.90;94.80;;;;;;5034990;28;20202;-86
2022/04/13 08:00:25;;;;;;;5.03;4.45;;;13.10;94.90;;;;;;5034554;28;20199;-86
2022/04/13 08:02:54;;;;;;;4.82;3.92;;;13.30;94.20;;;;;;5034005;28;20241;-86
2022/04/13 08:05:23;;;;;;;8.13;5.07;;;13.50;93.60;;;;;;5034543;28;20256;-87
2022/04/13 08:07:51;;;;;;;6.55;5.18;;;13.70;93.10;;;;;;5034264;28;20289;-86
2022/04/13 08:10:21;;;;;;;16.17;5.22;;;13.90;92.50;;;;;;5034278;28;20237;-87
2022/04/13 08:12:49;;;;;;;4.97;3.90;;;14.20;92.20;;;;;;5032958;28;20269;-86
2022/04/13 08:15:17;;;;;;;4.38;3.88;;;15.00;91.00;;;;;;5034628;28;20225;-86
2022/04/13 08:17:46;;;;;;;7.90;4.85;;;16.00;89.90;;;;;;5034483;28;20230;-87
2022/04/13 08:20:15;;;;;;;4.82;3.92;;;16.80;85.80;;;;;;5033494;28;20202;-87
2022/04/13 08:22:44;;;;;;;4.75;4.35;;;17.70;81.80;;;;;;5033838;28;20245;-86
2022/04/13 08:25:14;;;;;;;4.90;4.40;;;18.80;77.00;;;;;;5034497;28;20205;-86
2022/04/13 08:27:45;;;;;;;6.55;4.50;;;19.50;73.80;;;;;;5033907;28;20287;-86
2022/04/13 08:30:14;;;;;;;5.10;4.65;;;19.90;71.20;;;;;;5037238;28;20194;-88
2022/04/13 08:32:43;;;;;;;5.97;4.32;;;19.90;68.10;;;;;;5033994;28;20300;-87
2022/04/13 08:35:12;;;;;;;5.82;4.70;;;20.20;67.60;;;;;;5034209;28;20194;-87
2022/04/13 08:37:40;;;;;;;5.03;4.53;;;20.10;67.50;;;;;;5034390;28;20258;-87
2022/04/13 08:40:11;;;;;;;5.63;4.70;;;20.30;67.70;;;;;;5034173;28;20221;-87
2022/04/13 08:42:49;;;;;;;5.30;4.47;;;21.20;65.80;;;;;;5013811;28;20227;-87
2022/04/13 08:45:22;;;;;;;6.90;5.00;;;22.40;64.20;;;;;;5025659;28;20262;-87
2022/04/13 08:47:56;;;;;;;4.88;4.40;;;23.60;60.10;;;;;;5032753;28;20222;-88
2022/04/13 08:50:32;;;;;;;6.93;5.68;;;23.80;57.60;;;;;;5033674;28;20225;-87
2022/04/13 08:53:02;;;;;;;5.70;5.15;;;24.00;56.70;;;;;;5033383;28;20221;-87
2022/04/13 08:55:32;;;;;;;8.82;5.53;;;24.10;57.40;;;;;;5033637;28;20199;-87
2022/04/13 08:58:14;;;;;;;7.65;4.97;;;24.00;55.10;;;;;;5033503;28;20202;-87
2022/04/13 09:00:49;;;;;;;4.88;4.43;;;24.00;54.50;;;;;;5030205;28;20237;-87
2022/04/13 09:03:36;;;;;;;6.13;4.60;;;23.10;55.00;;;;;;5032610;28;20229;-86
2022/04/13 09:06:06;;;;;;;5.32;4.55;;;23.00;55.60;;;;;;5033697;28;20199;-86
2022/04/13 09:08:40;;;;;;;4.60;4.20;;;22.80;55.80;;;;;;5033125;28;20223;-86
2022/04/13 09:11:09;;;;;;;5.05;4.55;;;23.10;55.50;;;;;;5033133;28;20272;-87
2022/04/13 09:13:39;;;;;;;6.55;5.38;;;23.40;54.40;;;;;;5033410;28;20231;-86
2022/04/13 09:16:08;;;;;;;9.30;5.25;;;23.00;54.60;;;;;;5033126;28;20206;-86
2022/04/13 09:18:36;;;;;;;5.28;4.78;;;23.00;54.50;;;;;;5033179;28;20190;-86
2022/04/13 09:21:04;;;;;;;4.68;4.28;;;23.40;54.50;;;;;;5033353;28;20194;-86
2022/04/13 09:23:33;;;;;;;6.35;5.20;;;23.90;53.80;;;;;;5033163;28;20225;-87
2022/04/13 09:26:02;;;;;;;5.13;4.63;;;23.70;53.40;;;;;;5033529;28;20206;-87
2022/04/13 09:28:31;;;;;;;5.30;4.80;;;23.30;52.80;;;;;;5032749;28;20215;-87
2022/04/13 09:31:01;;;;;;;5.13;4.40;;;23.00;53.10;;;;;;5032992;28;20293;-87
2022/04/13 09:33:29;;;;;;;5.20;4.70;;;23.10;54.30;;;;;;5033250;28;20230;-87
2022/04/13 09:35:58;;;;;;;5.00;4.55;;;23.30;53.20;;;;;;5033385;28;20288;-87
2022/04/13 09:38:27;;;;;;;5.85;5.05;;;23.00;52.90;;;;;;5033068;28;20207;-87
2022/04/13 09:41:07;;;;;;;7.88;4.88;;;23.10;53.30;;;;;;5032571;28;20225;-86
2022/04/13 09:43:35;;;;;;;8.65;5.95;;;23.60;53.20;;;;;;5033119;28;20242;-86
2022/04/13 09:46:10;;;;;;;6.38;5.80;;;23.60;52.70;;;;;;5033081;28;20202;-86
2022/04/13 09:49:11;;;;;;;5.93;5.30;;;23.40;52.60;;;;;;5032743;28;20210;-87
2022/04/13 09:52:00;;;;;;;5.75;4.68;;;23.20;52.40;;;;;;5033039;28;20301;-86
2022/04/13 09:54:52;;;;;;;5.28;4.82;;;23.10;53.00;;;;;;5032795;28;20192;-83
2022/04/13 10:00:17;;;;;;;5.43;4.93;;;23.50;53.60;;;;;;5022497;28;20246;-89
2022/04/13 10:02:47;;;;;;;7.50;5.22;;;23.50;53.90;;;;;;5035502;28;20228;-88
2022/04/13 10:05:23;;;;;;;6.93;5.20;;;23.50;52.90;;;;;;5036858;28;20210;-88
2022/04/13 10:10:56;;;;;;;5.70;5.15;;;23.30;53.50;;;;;;5057069;28;20201;-88
2022/04/13 10:13:33;;;;;;;5.82;5.32;;;23.30;54.00;;;;;;5057733;28;20263;-88
2022/04/13 10:16:03;;;;;;;6.22;5.60;;;23.10;53.40;;;;;;5056729;28;20233;-88
2022/04/13 10:18:53;;;;;;;4.97;4.53;;;23.20;53.10;;;;;;5056344;28;20209;-87
2022/04/13 10:21:53;;;;;;;7.13;5.80;;;23.70;54.50;;;;;;5039480;28;20230;-87
2022/04/13 10:24:26;;;;;;;6.68;5.32;;;23.90;54.10;;;;;;5037148;28;20229;-87
2022/04/13 10:27:01;;;;;;;6.40;5.70;;;24.10;52.40;;;;;;5034649;28;20248;-86
2022/04/13 10:29:32;;;;;;;6.40;5.68;;;23.90;52.00;;;;;;5028621;28;20218;-79
2022/04/13 10:32:06;;;;;;;4.82;4.43;;;24.00;53.40;;;;;;5036134;28;20202;-80
2022/04/13 10:34:38;;;;;;;5.32;4.82;;;23.70;53.40;;;;;;5016294;28;20276;-79
2022/04/13 10:37:06;;;;;;;4.95;4.18;;;23.40;53.60;;;;;;5016774;28;20246;-79
2022/04/13 10:39:35;;;;;;;5.25;4.50;;;23.60;53.70;;;;;;5016959;28;20234;-79
2022/04/13 10:42:07;;;;;;;8.15;5.28;;;23.90;53.10;;;;;;5035927;28;20203;-87
2022/04/13 10:44:37;;;;;;;6.13;5.25;;;23.60;53.30;;;;;;5036301;28;20256;-88
2022/04/13 10:47:06;;;;;;;5.55;4.72;;;23.60;52.30;;;;;;5035937;28;20234;-87
2022/04/13 10:49:51;;;;;;;11.20;5.60;;;23.90;53.00;;;;;;5035372;28;20301;-87
2022/04/13 10:52:25;;;;;;;9.15;6.38;;;24.00;52.30;;;;;;5036109;28;20257;-87
2022/04/13 10:55:00;;;;;;;5.18;4.75;;;24.20;52.00;;;;;;5035240;28;20215;-87
2022/04/13 10:57:36;;;;;;;6.28;5.15;;;24.30;51.60;;;;;;5034886;28;20301;-87
2022/04/13 11:00:07;;;;;;;5.82;5.32;;;24.70;52.20;;;;;;5019039;28;20191;-87
2022/04/13 11:02:43;;;;;;;5.10;4.63;;;24.70;50.50;;;;;;5019672;28;20210;-87
2022/04/13 11:05:20;;;;;;;5.38;4.97;;;24.80;51.80;;;;;;5035875;28;20216;-88
2022/04/13 11:07:57;;;;;;;12.35;5.32;;;24.80;51.40;;;;;;5034837;28;20202;-87
2022/04/13 11:10:26;;;;;;;5.78;5.25;;;24.80;51.20;;;;;;5018589;28;20241;-88
2022/04/13 11:12:55;;;;;;;5.28;4.78;;;24.80;50.40;;;;;;5035378;28;20223;-88
2022/04/13 11:15:39;;;;;;;6.90;5.22;;;24.10;50.60;;;;;;5035688;28;20297;-88
2022/04/13 11:18:12;;;;;;;7.40;4.60;;;23.90;51.00;;;;;;5034899;28;20209;-87
2022/04/13 11:21:08;;;;;;;5.47;4.93;;;23.50;50.80;;;;;;5039590;28;20207;-87
2022/04/13 11:23:52;;;;;;;5.25;4.75;;;23.40;51.10;;;;;;5036069;28;20223;-88
2022/04/13 11:26:28;;;;;;;5.45;4.68;;;23.60;51.50;;;;;;5035726;28;20202;-87
2022/04/13 11:29:16;;;;;;;5.40;4.78;;;23.60;51.90;;;;;;5033277;28;20214;-87
2022/04/13 11:32:07;;;;;;;5.93;4.63;;;24.00;50.70;;;;;;5034763;28;20293;-87
2022/04/13 11:34:42;;;;;;;5.88;4.97;;;24.10;50.90;;;;;;5026632;28;20207;-87
2022/04/13 11:37:13;;;;;;;8.38;4.88;;;24.30;50.80;;;;;;5014849;28;20265;-87
2022/04/13 11:39:51;;;;;;;8.55;5.43;;;24.00;50.60;;;;;;5021194;28;20207;-87
2022/04/13 11:42:50;;;;;;;5.93;5.28;;;24.20;52.00;;;;;;5035094;28;20252;-87
2022/04/13 11:45:20;;;;;;;5.00;4.60;;;24.20;50.10;;;;;;5015442;28;20203;-87
2022/04/13 11:47:58;;;;;;;5.65;5.03;;;24.00;50.70;;;;;;5027272;28;20226;-88
2022/04/13 11:50:28;;;;;;;5.53;4.35;;;24.20;51.60;;;;;;5034135;28;20264;-87
2022/04/13 11:53:02;;;;;;;7.50;5.38;;;24.60;51.70;;;;;;5034458;28;20214;-88
2022/04/13 11:55:42;;;;;;;4.10;3.80;;;24.80;51.00;;;;;;5033738;28;20210;-87
2022/04/13 11:58:22;;;;;;;7.32;4.93;;;25.00;50.30;;;;;;5033822;28;20235;-87
2022/04/13 12:01:33;;;;;;;5.65;4.78;;;24.80;50.10;;;;;;5015124;28;20199;-90
2022/04/13 12:04:16;;;;;;;6.15;4.80;;;24.70;50.60;;;;;;5012678;28;20206;-88
2022/04/13 12:06:48;;;;;;;5.18;4.30;;;24.40;50.80;;;;;;5035048;28;20207;-88
2022/04/13 12:09:17;;;;;;;4.55;4.13;;;24.70;50.60;;;;;;5035420;28;20219;-85
2022/04/13 12:11:47;;;;;;;8.70;5.10;;;24.60;49.80;;;;;;5034391;28;20207;-85
2022/04/13 12:14:27;;;;;;;5.32;4.55;;;24.50;49.90;;;;;;5034014;28;20280;-85
2022/04/13 12:16:59;;;;;;;4.75;4.35;;;24.70;50.50;;;;;;5033397;28;20221;-84
2022/04/13 12:19:39;;;;;;;7.07;4.40;;;24.70;50.60;;;;;;5033101;28;20197;-85
2022/04/13 12:22:14;;;;;;;3.97;3.67;;;25.00;50.20;;;;;;5032826;28;20232;-85
2022/04/13 12:24:59;;;;;;;6.95;4.55;;;25.10;50.00;;;;;;5034466;28;20206;-85
2022/04/13 12:27:27;;;;;;;4.90;4.40;;;24.80;49.60;;;;;;5034537;28;20262;-85
2022/04/13 12:30:11;;;;;;;12.18;4.88;;;24.60;49.40;;;;;;5033849;28;20309;-85
2022/04/13 12:32:46;;;;;;;4.78;3.75;;;24.60;50.00;;;;;;5032726;28;20226;-85
2022/04/13 12:35:15;;;;;;;4.05;3.65;;;24.80;49.80;;;;;;5034951;28;20236;-85
2022/04/13 12:37:53;;;;;;;4.78;3.95;;;25.00;51.70;;;;;;5043182;28;20281;-85
2022/04/13 12:40:26;;;;;;;4.35;3.95;;;25.00;49.40;;;;;;5033292;28;20290;-85
2022/04/13 12:42:54;;;;;;;4.35;4.00;;;25.00;50.10;;;;;;5034048;28;20222;-85
2022/04/13 12:45:29;;;;;;;4.50;4.10;;;24.70;49.40;;;;;;5033761;28;20229;-85
2022/04/13 12:47:58;;;;;;;4.80;4.40;;;24.80;50.10;;;;;;5033852;28;20206;-85
2022/04/13 12:50:26;;;;;;;4.35;4.03;;;24.20;49.10;;;;;;5032067;28;20238;-85
2022/04/13 12:52:58;;;;;;;7.43;4.45;;;24.50;50.30;;;;;;5047748;28;20241;-87
2022/04/13 12:55:29;;;;;;;4.95;4.10;;;24.60;50.40;;;;;;5053154;28;20210;-87
2022/04/13 12:57:59;;;;;;;4.65;3.85;;;24.70;50.50;;;;;;5033797;28;20203;-87
2022/04/13 13:00:47;;;;;;;4.57;4.18;;;24.60;49.60;;;;;;5033488;28;20205;-88
2022/04/13 13:03:16;;;;;;;7.47;4.43;;;24.50;49.80;;;;;;5036293;28;20217;-88
2022/04/13 13:05:45;;;;;;;5.32;4.82;;;24.30;50.20;;;;;;5033731;28;20249;-88
2022/04/13 13:08:14;;;;;;;4.72;4.32;;;24.30;50.20;;;;;;5033234;28;20233;-87
2022/04/13 13:10:47;;;;;;;5.78;4.85;;;24.10;50.90;;;;;;5032860;28;20282;-86
2022/04/13 13:13:18;;;;;;;5.32;4.20;;;24.10;50.60;;;;;;5033264;28;20226;-87
2022/04/13 13:15:47;;;;;;;3.88;3.58;;;23.80;50.70;;;;;;5034009;28;20214;-87